Time;durP1;ratioP1;P1;durP2;ratioP2;P2;SDS_P1;SDS_P2;PMS_P1;PMS_P2;Temp;Humidity;BMP_temperature;BMP_pressure;BME280_temperature;BME280_humidity;BME280_pressure;Samples;Min_cycle;Max_cycle;Signal;HPM_P1;HPM_P2
2024/01/29 00:01:45;;;;;;;38.05;17.67;;;0.40;99.90;;;;;;2603114;54;20259;31
2024/01/29 00:04:22;;;;;;;40.45;19.65;;;0.40;99.90;;;;;;2618320;46;20026;31
2024/01/29 00:06:59;;;;;;;45.15;18.48;;;0.40;99.90;;;;;;2603289;54;20772;31
2024/01/29 00:09:42;;;;;;;45.90;19.60;;;0.40;99.90;;;;;;2621577;46;20030;31
2024/01/29 00:12:17;;;;;;;42.33;19.45;;;0.40;99.90;;;;;;2603351;54;20257;31
2024/01/29 00:14:55;;;;;;;37.00;18.30;;;0.40;99.90;;;;;;2621496;46;20034;31
2024/01/29 00:17:30;;;;;;;37.50;18.20;;;0.40;99.90;;;;;;2603339;54;20845;31
2024/01/29 00:20:07;;;;;;;39.22;17.63;;;0.40;99.90;;;;;;2620845;46;20052;31
2024/01/29 00:22:45;;;;;;;36.45;18.30;;;0.40;99.90;;;;;;2603180;54;20906;31
2024/01/29 00:25:24;;;;;;;44.20;16.70;;;0.40;99.90;;;;;;2602973;54;20026;31
2024/01/29 00:28:00;;;;;;;34.28;16.60;;;0.40;99.90;;;;;;2603222;54;20072;31
2024/01/29 00:30:35;;;;;;;36.80;18.33;;;0.40;99.90;;;;;;2621233;46;20062;31
2024/01/29 00:33:12;;;;;;;44.63;19.58;;;0.40;99.90;;;;;;2603225;54;20975;31
2024/01/29 00:35:55;;;;;;;41.20;18.65;;;0.40;99.90;;;;;;2602255;54;20023;31
2024/01/29 00:38:34;;;;;;;38.20;18.95;;;0.30;99.90;;;;;;2603081;54;20890;31
2024/01/29 00:41:16;;;;;;;36.45;17.95;;;0.30;99.90;;;;;;2603303;54;20832;31
2024/01/29 00:43:52;;;;;;;38.70;18.42;;;0.30;99.90;;;;;;2603074;54;20874;31
2024/01/29 00:46:33;;;;;;;37.38;17.80;;;0.30;99.90;;;;;;2603123;54;20033;31
2024/01/29 00:51:46;;;;;;;36.88;18.02;;;0.30;99.90;;;;;;2603144;54;20124;31
2024/01/29 00:54:23;;;;;;;39.85;17.65;;;0.20;99.90;;;;;;2603133;54;20941;31
2024/01/29 00:56:58;;;;;;;42.45;18.25;;;0.20;99.90;;;;;;2602939;54;20153;31
2024/01/29 00:59:37;;;;;;;38.92;18.10;;;0.20;99.90;;;;;;2602902;54;20026;31
2024/01/29 01:02:13;;;;;;;38.10;17.73;;;0.20;99.90;;;;;;2621742;46;20086;31
2024/01/29 01:04:50;;;;;;;32.55;17.00;;;0.20;99.90;;;;;;2621504;46;20932;31
2024/01/29 01:07:25;;;;;;;31.73;14.90;;;0.20;99.90;;;;;;2621420;46;20057;31
2024/01/29 01:10:03;;;;;;;41.15;16.38;;;0.20;99.90;;;;;;2602867;54;20022;31
2024/01/29 01:12:39;;;;;;;34.65;16.40;;;0.10;99.90;;;;;;2620848;46;20037;31
2024/01/29 01:15:22;;;;;;;35.00;16.10;;;0.20;99.90;;;;;;2603062;54;20027;31
2024/01/29 01:17:57;;;;;;;37.22;16.23;;;0.10;99.90;;;;;;2602799;54;20521;31
2024/01/29 01:20:35;;;;;;;36.70;15.40;;;0.10;99.90;;;;;;2602599;54;20085;31
2024/01/29 01:23:14;;;;;;;29.95;14.85;;;0.10;99.90;;;;;;2603126;54;20910;31
2024/01/29 01:25:50;;;;;;;32.73;15.00;;;0.10;99.90;;;;;;2602110;54;20026;31
2024/01/29 01:28:27;;;;;;;34.53;15.18;;;0.10;99.90;;;;;;2602318;54;20891;31
2024/01/29 01:31:07;;;;;;;34.28;16.30;;;0.10;99.90;;;;;;2602854;54;20863;31
2024/01/29 01:33:43;;;;;;;29.50;14.25;;;0.10;99.90;;;;;;2602633;54;20097;31
2024/01/29 01:36:19;;;;;;;36.80;14.95;;;0.10;99.90;;;;;;2602907;54;20023;31
2024/01/29 01:38:53;;;;;;;;;;;0.10;99.90;;;;;;2621448;46;22520;31
2024/01/29 01:41:30;;;;;;;28.17;14.13;;;0.00;99.90;;;;;;2620886;46;19934;31
2024/01/29 01:44:10;;;;;;;27.85;13.75;;;0.00;99.90;;;;;;2602648;54;20030;31
2024/01/29 01:46:52;;;;;;;31.48;14.13;;;0.00;99.90;;;;;;2603113;54;20885;31
2024/01/29 01:49:28;;;;;;;33.80;13.73;;;0.00;99.90;;;;;;2621175;46;20033;31
2024/01/29 01:52:04;;;;;;;30.25;13.70;;;0.00;99.90;;;;;;2602957;54;20026;31
2024/01/29 01:54:42;;;;;;;36.00;15.20;;;-0.10;99.90;;;;;;2602950;54;20935;31
2024/01/29 01:57:21;;;;;;;32.65;14.65;;;-0.10;99.90;;;;;;2602234;54;20049;31
2024/01/29 01:59:58;;;;;;;30.92;14.40;;;-0.10;99.90;;;;;;2602036;54;20747;31
2024/01/29 02:02:53;;;;;;;27.45;15.10;;;-0.10;99.90;;;;;;2602678;54;20081;31
2024/01/29 02:05:43;;;;;;;28.73;14.07;;;-0.10;99.90;;;;;;2602833;54;20913;31
2024/01/29 02:08:18;;;;;;;30.30;14.50;;;-0.10;99.90;;;;;;2602883;54;20234;31
2024/01/29 02:10:59;;;;;;;37.35;14.60;;;-0.10;99.90;;;;;;2602968;54;20879;31
2024/01/29 02:13:34;;;;;;;27.52;13.32;;;-0.10;99.90;;;;;;2602617;54;20037;31
2024/01/29 02:16:12;;;;;;;32.50;13.75;;;-0.10;99.90;;;;;;2602946;54;20883;31
2024/01/29 02:18:54;;;;;;;29.90;13.57;;;-0.10;99.90;;;;;;2602677;54;20022;31
2024/01/29 02:21:33;;;;;;;29.70;13.50;;;-0.30;99.90;;;;;;2621141;46;20030;31
2024/01/29 02:24:12;;;;;;;31.25;14.82;;;-0.30;99.90;;;;;;2602942;54;20049;31
2024/01/29 02:26:50;;;;;;;28.83;13.93;;;-0.20;99.90;;;;;;2602558;54;20030;31
2024/01/29 02:29:28;;;;;;;33.17;13.68;;;-0.20;99.90;;;;;;2602619;54;20026;31
2024/01/29 02:34:51;;;;;;;29.55;13.90;;;-0.30;99.90;;;;;;2602835;54;20086;31
2024/01/29 02:37:30;;;;;;;29.00;14.10;;;-0.30;99.90;;;;;;2602502;54;20102;31
2024/01/29 02:40:15;;;;;;;33.30;14.33;;;-0.30;99.90;;;;;;2602341;54;20841;31
2024/01/29 02:45:25;;;;;;;27.65;13.65;;;-0.30;99.90;;;;;;2601867;54;20239;31
2024/01/29 02:48:01;;;;;;;36.90;13.70;;;-0.30;99.90;;;;;;2602018;54;20034;31
2024/01/29 02:50:38;;;;;;;32.35;14.73;;;-0.30;99.90;;;;;;2602540;54;20998;31
2024/01/29 02:53:15;;;;;;;36.17;14.63;;;-0.40;99.90;;;;;;2602760;54;20038;31
2024/01/29 02:55:54;;;;;;;32.35;14.65;;;-0.40;99.90;;;;;;2603620;54;20246;31
2024/01/29 02:58:32;;;;;;;35.45;15.60;;;-0.40;99.90;;;;;;2621608;46;20760;31
2024/01/29 03:01:07;;;;;;;36.40;13.93;;;-0.40;99.90;;;;;;2603326;54;20022;31
2024/01/29 03:03:45;;;;;;;33.35;15.15;;;-0.40;99.90;;;;;;2621736;46;22603;31
2024/01/29 03:06:23;;;;;;;35.15;14.77;;;-0.40;99.90;;;;;;2603432;54;22368;31
2024/01/29 03:08:59;;;;;;;33.00;16.15;;;-0.40;99.90;;;;;;2603637;54;20026;31
2024/01/29 03:11:39;;;;;;;35.83;15.63;;;-0.40;99.90;;;;;;2701684;39;21469;31
2024/01/29 03:14:23;;;;;;;36.70;17.10;;;-0.40;99.90;;;;;;2603395;54;20894;31
2024/01/29 03:16:59;;;;;;;35.17;16.05;;;-0.40;99.90;;;;;;2701837;39;20467;31
2024/01/29 03:19:38;;;;;;;41.22;16.77;;;-0.40;99.90;;;;;;2603448;54;20034;31
2024/01/29 03:22:14;;;;;;;40.05;18.90;;;-0.40;99.90;;;;;;2603177;54;20149;31
2024/01/29 03:24:54;;;;;;;39.80;16.20;;;-0.40;99.90;;;;;;2603472;54;20944;31
2024/01/29 03:27:32;;;;;;;38.17;17.50;;;-0.40;99.90;;;;;;2603033;54;20116;31
2024/01/29 03:30:12;;;;;;;39.67;17.33;;;-0.40;99.90;;;;;;2621865;46;20156;31
2024/01/29 03:32:49;;;;;;;39.20;18.40;;;-0.40;99.90;;;;;;2603199;54;20033;31
2024/01/29 03:35:25;;;;;;;39.55;18.67;;;-0.40;99.90;;;;;;2773196;31;20464;31
2024/01/29 03:38:01;;;;;;;;;;;-0.40;99.90;;;;;;2603453;54;20994;31
2024/01/29 03:40:42;;;;;;;41.17;17.27;;;-0.40;99.90;;;;;;2621598;46;20021;31
2024/01/29 03:43:22;;;;;;;42.63;18.63;;;-0.40;99.90;;;;;;2603162;54;20238;31
2024/01/29 03:45:55;;;;;;;39.97;19.50;;;-0.40;99.90;;;;;;2603344;54;22399;31
2024/01/29 03:48:31;;;;;;;46.65;20.40;;;-0.50;99.90;;;;;;2621800;46;20993;31
2024/01/29 03:51:10;;;;;;;40.45;20.33;;;-0.40;99.90;;;;;;2603260;54;20031;31
2024/01/29 03:53:48;;;;;;;41.75;18.58;;;-0.50;99.90;;;;;;2621684;46;20031;31
2024/01/29 03:56:24;;;;;;;42.95;19.90;;;-0.50;99.90;;;;;;2621764;46;20903;31
2024/01/29 03:59:02;;;;;;;46.70;19.95;;;-0.50;99.90;;;;;;2603303;54;20062;31
2024/01/29 04:01:42;;;;;;;47.57;21.53;;;-0.50;99.90;;;;;;2621830;46;20033;31
2024/01/29 04:04:25;;;;;;;54.43;21.97;;;-0.50;99.90;;;;;;2603311;54;21230;31
2024/01/29 04:07:03;;;;;;;49.45;21.25;;;-0.50;99.90;;;;;;2603340;54;21078;31
2024/01/29 04:09:40;;;;;;;47.97;19.33;;;-0.50;99.90;;;;;;2603080;54;20037;31
2024/01/29 04:12:15;;;;;;;42.65;21.55;;;-0.60;99.90;;;;;;2603346;54;21126;31
2024/01/29 04:14:59;;;;;;;49.47;21.07;;;-0.50;99.90;;;;;;2603283;54;20089;31
2024/01/29 04:17:34;;;;;;;45.13;21.83;;;-0.60;99.90;;;;;;2621719;46;20037;31
2024/01/29 04:20:15;;;;;;;;;;;-0.60;99.90;;;;;;2603304;54;20766;31
2024/01/29 04:22:50;;;;;;;39.45;18.45;;;-0.60;99.90;;;;;;2603280;54;19935;31
2024/01/29 04:25:27;;;;;;;53.50;20.70;;;-0.50;99.90;;;;;;2602961;54;20865;31
2024/01/29 04:28:06;;;;;;;48.22;23.17;;;-0.50;99.90;;;;;;2603052;54;20054;31
2024/01/29 04:30:45;;;;;;;46.30;22.80;;;-0.60;99.90;;;;;;2621728;46;20928;31
2024/01/29 04:33:21;;;;;;;53.85;22.15;;;-0.50;99.90;;;;;;2603213;54;21052;31
2024/01/29 04:35:55;;;;;;;;;;;-0.60;99.90;;;;;;2620915;46;20899;31
2024/01/29 04:38:32;;;;;;;49.85;20.90;;;-0.60;99.90;;;;;;2603014;54;19934;31
2024/01/29 04:41:09;;;;;;;41.13;20.40;;;-0.60;99.90;;;;;;2602280;54;20087;31
2024/01/29 04:43:49;;;;;;;50.05;22.38;;;-0.60;99.90;;;;;;2603067;54;20033;31
2024/01/29 04:46:32;;;;;;;46.67;21.17;;;-0.60;99.90;;;;;;2603128;54;20030;31
2024/01/29 04:49:08;;;;;;;50.63;22.92;;;-0.60;99.90;;;;;;2602977;54;20930;31
2024/01/29 04:51:46;;;;;;;50.40;23.83;;;-0.60;99.90;;;;;;2602229;54;20089;31
2024/01/29 04:54:22;;;;;;;54.67;24.40;;;-0.60;99.90;;;;;;2602289;54;20030;31
2024/01/29 04:56:57;;;;;;;51.35;22.70;;;-0.60;99.90;;;;;;2603122;54;20112;31
2024/01/29 04:59:35;;;;;;;54.60;22.20;;;-0.60;99.90;;;;;;2621532;46;21404;31
2024/01/29 05:02:10;;;;;;;44.42;22.70;;;-0.60;99.90;;;;;;2602838;54;20864;31
2024/01/29 05:04:50;;;;;;;51.63;23.75;;;-0.70;99.90;;;;;;2602965;54;20942;31
2024/01/29 05:07:25;;;;;;;48.92;22.58;;;-0.60;99.90;;;;;;2603058;54;20089;31
2024/01/29 05:10:03;;;;;;;48.85;22.83;;;-0.70;99.90;;;;;;2602949;54;20034;31
2024/01/29 05:12:39;;;;;;;53.70;24.25;;;-0.70;99.90;;;;;;2603101;54;20037;31
2024/01/29 05:15:19;;;;;;;51.33;24.03;;;-0.70;99.90;;;;;;2602779;54;20054;31
2024/01/29 05:17:59;;;;;;;56.70;25.33;;;-0.70;99.90;;;;;;2603001;54;20852;31
2024/01/29 05:20:40;;;;;;;50.72;23.80;;;-0.70;99.90;;;;;;2608417;46;20045;31
2024/01/29 05:23:18;;;;;;;59.47;23.58;;;-0.70;99.90;;;;;;2602825;54;20769;31
2024/01/29 05:28:42;;;;;;;55.50;24.10;;;-0.70;99.90;;;;;;2603082;54;20780;31
2024/01/29 05:31:19;;;;;;;54.40;25.63;;;-0.70;99.90;;;;;;2602881;54;20891;31
2024/01/29 05:33:53;;;;;;;52.43;23.10;;;-0.70;99.90;;;;;;2602976;54;22483;31
2024/01/29 05:36:38;;;;;;;57.83;23.80;;;-0.70;99.90;;;;;;2603060;54;20874;31
2024/01/29 05:39:16;;;;;;;64.65;24.25;;;-0.70;99.90;;;;;;2602734;54;20760;31
2024/01/29 05:41:55;;;;;;;56.03;27.13;;;-0.80;99.90;;;;;;2602590;54;20060;31
2024/01/29 05:44:33;;;;;;;55.55;25.58;;;-0.80;99.90;;;;;;2602798;54;20786;31
2024/01/29 05:47:12;;;;;;;58.28;25.13;;;-0.70;99.90;;;;;;2602986;54;20112;31
2024/01/29 05:49:52;;;;;;;61.13;26.55;;;-0.80;99.90;;;;;;2602683;54;20893;31
2024/01/29 05:52:33;;;;;;;58.28;26.45;;;-0.80;99.90;;;;;;2602897;54;20878;31
2024/01/29 05:55:11;;;;;;;56.47;27.13;;;-0.80;99.90;;;;;;2602831;54;20844;31
2024/01/29 05:57:49;;;;;;;53.80;24.95;;;-0.80;99.90;;;;;;2620964;46;20306;31
2024/01/29 06:00:24;;;;;;;55.58;24.73;;;-0.80;99.90;;;;;;2602874;54;20033;31
2024/01/29 06:03:00;;;;;;;60.60;28.10;;;-0.80;99.90;;;;;;2602726;54;20847;31
2024/01/29 06:05:41;;;;;;;62.15;26.70;;;-0.80;99.90;;;;;;2602713;54;20035;31
2024/01/29 06:08:25;;;;;;;65.20;27.50;;;-0.80;99.90;;;;;;2602860;54;20121;31
2024/01/29 06:11:03;;;;;;;64.18;29.38;;;-0.80;99.90;;;;;;2602855;54;20864;31
2024/01/29 06:13:46;;;;;;;62.35;28.20;;;-0.80;99.90;;;;;;2602650;54;20104;31
2024/01/29 06:16:28;;;;;;;52.22;23.98;;;-0.80;99.90;;;;;;2602664;54;20042;31
2024/01/29 06:19:03;;;;;;;65.97;27.63;;;-0.80;99.90;;;;;;2602632;54;20037;31
2024/01/29 06:21:41;;;;;;;59.40;26.70;;;-0.80;99.90;;;;;;2602694;54;20941;31
2024/01/29 06:24:24;;;;;;;57.65;25.95;;;-0.80;99.90;;;;;;2601943;54;20058;31
2024/01/29 06:27:03;;;;;;;51.70;26.60;;;-0.80;99.90;;;;;;2602073;54;20034;31
2024/01/29 06:29:41;;;;;;;54.35;25.40;;;-0.80;99.90;;;;;;2602741;54;20959;31
2024/01/29 06:32:18;;;;;;;60.60;28.80;;;-0.80;99.90;;;;;;2603674;54;20820;31
2024/01/29 06:34:57;;;;;;;61.70;32.30;;;-0.80;99.90;;;;;;2622004;46;20022;31
2024/01/29 06:37:35;;;;;;;60.60;30.30;;;-0.80;99.90;;;;;;2603230;54;20778;31
2024/01/29 06:40:16;;;;;;;55.83;27.25;;;-0.80;99.90;;;;;;2603158;54;20089;31
2024/01/29 06:42:53;;;;;;;50.03;23.55;;;-0.80;99.90;;;;;;2603543;54;20841;31
2024/01/29 06:45:30;;;;;;;61.28;25.98;;;-0.80;99.90;;;;;;2602769;54;20042;31
2024/01/29 06:48:11;;;;;;;57.65;26.35;;;-0.80;99.90;;;;;;2603523;54;20030;31
2024/01/29 06:50:48;;;;;;;55.73;24.43;;;-0.80;99.90;;;;;;2603267;54;20916;31
2024/01/29 06:53:27;;;;;;;56.28;28.65;;;-0.80;99.90;;;;;;2603549;54;20889;31
2024/01/29 06:56:06;;;;;;;60.08;27.23;;;-0.80;99.90;;;;;;2603347;54;20027;31
2024/01/29 06:58:45;;;;;;;62.15;26.75;;;-0.80;99.90;;;;;;2622223;46;20864;31
2024/01/29 07:01:26;;;;;;;63.00;26.95;;;-0.80;99.90;;;;;;2603481;54;20802;31
2024/01/29 07:04:06;;;;;;;60.58;26.17;;;-0.80;99.90;;;;;;2603341;54;20049;31
2024/01/29 07:06:44;;;;;;;53.85;27.15;;;-0.80;99.90;;;;;;2603567;54;20031;31
2024/01/29 07:09:22;;;;;;;52.40;24.90;;;-0.80;99.90;;;;;;2603509;54;20973;31
2024/01/29 07:12:02;;;;;;;58.35;26.45;;;-0.80;99.90;;;;;;2702205;39;22407;31
2024/01/29 07:14:39;;;;;;;61.33;27.55;;;-0.80;99.90;;;;;;2603304;54;20030;31
2024/01/29 07:17:17;;;;;;;59.03;26.55;;;-0.70;99.90;;;;;;2603243;54;20107;31
2024/01/29 07:19:56;;;;;;;57.30;25.70;;;-0.70;99.90;;;;;;2621899;46;20192;31
2024/01/29 07:22:37;;;;;;;55.53;27.80;;;-0.70;99.90;;;;;;2622116;46;20107;31
2024/01/29 07:25:18;;;;;;;56.75;26.10;;;-0.60;99.90;;;;;;2603321;54;20034;31
2024/01/29 07:27:59;;;;;;;57.55;26.92;;;-0.60;99.90;;;;;;2621863;46;20038;31
2024/01/29 07:30:37;;;;;;;53.40;24.60;;;-0.60;99.90;;;;;;2621612;46;20081;31
2024/01/29 07:33:13;;;;;;;64.13;27.07;;;-0.50;99.90;;;;;;2603108;54;20026;31
2024/01/29 07:35:48;;;;;;;;;;;-0.30;99.90;;;;;;2603663;54;20042;31
2024/01/29 07:38:28;;;;;;;46.50;22.60;;;0.20;99.90;;;;;;2603011;54;19946;31
2024/01/29 07:41:04;;;;;;;45.83;21.53;;;0.60;99.90;;;;;;2603345;54;20910;31
2024/01/29 07:43:45;;;;;;;50.25;23.05;;;1.20;99.90;;;;;;2603344;54;20048;31
2024/01/29 07:46:24;;;;;;;50.00;22.97;;;1.80;99.90;;;;;;2603477;54;20846;31
2024/01/29 07:49:01;;;;;;;43.65;21.58;;;2.30;99.90;;;;;;2603507;54;20944;31
2024/01/29 07:51:42;;;;;;;51.33;22.77;;;2.90;99.90;;;;;;2603132;54;20023;31
2024/01/29 07:54:17;;;;;;;46.28;23.73;;;3.40;99.90;;;;;;2603210;54;22657;31
2024/01/29 07:56:55;;;;;;;45.80;25.47;;;3.80;99.90;;;;;;2620638;46;21136;31
2024/01/29 07:59:36;;;;;;;47.00;23.25;;;4.10;99.90;;;;;;2603199;54;20266;31
2024/01/29 08:02:10;;;;;;;45.20;22.85;;;4.40;99.90;;;;;;2603206;54;22402;31
2024/01/29 08:04:48;;;;;;;44.30;22.55;;;4.50;99.90;;;;;;2602982;54;20026;31
2024/01/29 08:07:24;;;;;;;42.42;22.10;;;4.60;99.90;;;;;;2602960;54;20027;31
2024/01/29 08:10:09;;;;;;;51.90;23.70;;;4.80;99.90;;;;;;2621763;46;20751;31
2024/01/29 08:12:57;;;;;;;44.90;22.77;;;5.00;99.90;;;;;;2603028;54;20885;31
2024/01/29 08:15:42;;;;;;;51.37;26.27;;;5.20;99.90;;;;;;2603079;54;21072;31
2024/01/29 08:18:21;;;;;;;47.13;23.83;;;5.40;99.90;;;;;;2603111;54;20333;31
2024/01/29 08:20:57;;;;;;;47.00;24.30;;;5.50;99.90;;;;;;2603117;54;20038;31
2024/01/29 08:23:34;;;;;;;44.75;22.83;;;5.90;99.90;;;;;;2602335;54;21883;31
2024/01/29 08:26:10;;;;;;;45.50;22.63;;;6.00;99.90;;;;;;2617387;46;20031;31
2024/01/29 08:28:47;;;;;;;48.67;25.23;;;6.10;99.90;;;;;;2621451;46;22640;31
2024/01/29 08:31:32;;;;;;;43.63;22.93;;;6.50;99.90;;;;;;2603083;54;20053;31
2024/01/29 08:34:17;;;;;;;42.85;21.45;;;6.60;99.90;;;;;;2602941;54;20867;31
2024/01/29 08:36:57;;;;;;;42.03;22.27;;;6.70;99.90;;;;;;2701609;39;21507;31
2024/01/29 08:39:38;;;;;;;40.53;21.30;;;6.90;99.90;;;;;;2602868;54;20842;31
2024/01/29 08:42:26;;;;;;;37.20;20.35;;;7.00;99.90;;;;;;2603120;54;20921;31
2024/01/29 08:45:13;;;;;;;40.95;21.05;;;7.20;99.90;;;;;;2602637;54;20034;31
2024/01/29 08:50:55;;;;;;;39.88;22.00;;;7.50;99.90;;;;;;2601739;54;20073;31
2024/01/29 08:53:33;;;;;;;41.50;20.90;;;7.70;99.90;;;;;;2602978;54;20038;31
2024/01/29 08:56:12;;;;;;;39.53;21.85;;;8.00;99.90;;;;;;2602966;54;20129;31
2024/01/29 08:58:50;;;;;;;45.60;22.67;;;8.30;99.90;;;;;;2603030;54;20869;31
2024/01/29 09:04:05;;;;;;;38.08;20.15;;;8.80;99.90;;;;;;2602579;54;20026;31
2024/01/29 09:06:48;;;;;;;41.05;19.70;;;9.00;99.90;;;;;;2602830;54;21260;31
2024/01/29 09:09:24;;;;;;;37.92;20.92;;;9.10;99.90;;;;;;2602523;54;20061;31
2024/01/29 09:12:20;;;;;;;38.40;20.30;;;9.20;99.90;;;;;;2602727;54;20031;31
2024/01/29 09:15:01;;;;;;;41.53;19.23;;;9.40;99.90;;;;;;2621062;46;20027;31
2024/01/29 09:17:49;;;;;;;;;;;;;;;;;;;;;
2024/01/29 09:23:23;;;;;;;35.72;19.77;;;9.60;99.90;;;;;;2602682;54;20026;31
2024/01/29 09:26:14;;;;;;;33.85;17.60;;;9.60;99.90;;;;;;2602746;54;20922;31
2024/01/29 09:28:57;;;;;;;38.58;18.92;;;9.60;99.90;;;;;;2602854;54;20935;31
2024/01/29 09:31:42;;;;;;;90.25;35.05;;;9.50;99.90;;;;;;2621401;46;20905;31
2024/01/29 09:34:27;;;;;;;104.85;53.60;;;9.60;99.90;;;;;;2602663;54;20935;31
2024/01/29 09:37:07;;;;;;;68.25;43.00;;;9.80;99.90;;;;;;2602691;54;20034;31
2024/01/29 09:39:53;;;;;;;166.32;102.65;;;9.90;99.90;;;;;;2602515;54;20022;31
2024/01/29 09:42:31;;;;;;;197.32;108.32;;;10.00;99.90;;;;;;2602743;54;20847;31
2024/01/29 09:45:12;;;;;;;149.35;86.80;;;9.90;99.90;;;;;;2616302;46;21903;31
2024/01/29 09:47:50;;;;;;;216.52;122.72;;;9.80;99.90;;;;;;2601998;54;20790;31
2024/01/29 09:50:28;;;;;;;129.32;86.22;;;9.90;99.90;;;;;;2602715;54;20030;31
2024/01/29 09:53:07;;;;;;;45.92;31.23;;;10.00;99.90;;;;;;2602767;54;20056;31
2024/01/29 09:55:48;;;;;;;42.90;28.20;;;10.00;99.90;;;;;;2620212;46;20929;31
2024/01/29 09:58:29;;;;;;;61.37;42.17;;;10.10;99.90;;;;;;2620918;46;20033;31
2024/01/29 10:01:06;;;;;;;30.55;17.95;;;10.30;99.90;;;;;;2610948;46;20883;31
2024/01/29 10:03:45;;;;;;;19.97;12.20;;;10.40;99.90;;;;;;2620897;46;20026;31
2024/01/29 10:06:24;;;;;;;18.23;10.70;;;10.50;99.90;;;;;;2602493;54;20056;31
2024/01/29 10:09:06;;;;;;;24.50;13.13;;;10.40;99.90;;;;;;2602480;54;20100;31
2024/01/29 10:11:49;;;;;;;19.85;12.15;;;10.40;99.90;;;;;;2620890;46;20246;31
2024/01/29 10:14:28;;;;;;;21.15;10.80;;;10.40;99.90;;;;;;2620844;46;21288;31
2024/01/29 10:17:06;;;;;;;21.67;10.10;;;10.20;99.90;;;;;;2602152;54;20145;31
2024/01/29 10:19:47;;;;;;;21.38;8.32;;;10.20;99.90;;;;;;2620428;46;20943;31
2024/01/29 10:22:27;;;;;;;25.00;8.82;;;10.10;99.90;;;;;;2602528;54;20026;31
2024/01/29 10:25:08;;;;;;;27.10;11.90;;;10.10;99.90;;;;;;2602742;54;20827;31
2024/01/29 10:27:51;;;;;;;18.10;9.32;;;9.90;99.90;;;;;;2602751;54;20834;31
2024/01/29 10:30:36;;;;;;;16.30;7.40;;;9.80;99.90;;;;;;2602667;54;20776;31
2024/01/29 10:33:14;;;;;;;17.27;8.68;;;9.70;99.90;;;;;;2602368;54;20027;31
2024/01/29 10:36:00;;;;;;;20.08;9.48;;;9.70;99.90;;;;;;2621148;47;20033;31
2024/01/29 10:41:44;;;;;;;31.50;13.13;;;9.50;99.90;;;;;;2602360;54;20782;31
2024/01/29 10:44:22;;;;;;;38.13;16.20;;;9.50;99.90;;;;;;2602235;54;20830;31
2024/01/29 10:47:27;;;;;;;20.00;9.82;;;9.50;99.90;;;;;;2602207;54;20027;31
2024/01/29 10:50:30;;;;;;;19.60;8.20;;;9.50;99.90;;;;;;2620941;47;20032;31
2024/01/29 10:53:17;;;;;;;16.65;6.85;;;9.50;99.90;;;;;;2602409;54;20027;31
2024/01/29 10:56:26;;;;;;;14.18;6.10;;;9.50;99.90;;;;;;2602609;54;20027;31
2024/01/29 10:59:28;;;;;;;14.73;7.72;;;9.50;99.90;;;;;;2602597;54;20858;31
2024/01/29 11:14:34;;;;;;;16.65;6.20;;;9.40;99.90;;;;;;2621140;47;20849;31
2024/01/29 11:17:25;;;;;;;17.30;7.50;;;9.40;99.90;;;;;;2603365;54;20807;31
2024/01/29 11:23:06;;;;;;;19.30;7.47;;;9.20;99.90;;;;;;2602848;54;20924;31
2024/01/29 11:26:10;;;;;;;17.15;7.47;;;9.10;99.90;;;;;;2603163;54;20089;31
2024/01/29 11:29:10;;;;;;;11.90;6.18;;;9.10;99.90;;;;;;2603053;54;20030;31
2024/01/29 11:32:23;;;;;;;10.30;5.15;;;9.00;99.90;;;;;;2701715;39;21460;31
2024/01/29 11:35:27;;;;;;;16.17;7.17;;;8.90;99.90;;;;;;2621438;46;20022;31
2024/01/29 11:38:25;;;;;;;15.23;7.72;;;8.80;99.90;;;;;;2621636;46;20234;31
2024/01/29 11:41:09;;;;;;;13.00;6.15;;;8.80;99.90;;;;;;2602392;54;20030;31
2024/01/29 11:43:47;;;;;;;18.73;7.37;;;8.70;99.90;;;;;;2614372;46;20888;31
2024/01/29 11:46:26;;;;;;;14.82;7.18;;;8.70;99.90;;;;;;2602756;54;20079;31
2024/01/29 11:49:27;;;;;;;15.75;6.55;;;8.70;99.90;;;;;;2603113;54;20033;31
2024/01/29 11:52:08;;;;;;;15.30;6.38;;;8.70;99.90;;;;;;2621746;46;20034;31
2024/01/29 11:54:52;;;;;;;14.52;5.40;;;8.70;99.90;;;;;;2602990;54;20042;31
2024/01/29 11:57:34;;;;;;;14.68;4.93;;;8.70;99.90;;;;;;2602929;54;21216;31
2024/01/29 12:00:27;;;;;;;11.88;5.40;;;8.70;99.90;;;;;;2603210;54;20026;31
2024/01/29 12:03:20;;;;;;;21.20;6.70;;;8.70;99.90;;;;;;2603126;54;20895;31
2024/01/29 12:06:02;;;;;;;11.85;5.60;;;8.80;99.90;;;;;;2621287;46;20038;31
2024/01/29 12:08:48;;;;;;;9.00;4.53;;;8.70;99.90;;;;;;2602912;54;20926;31
2024/01/29 12:14:17;;;;;;;13.80;5.70;;;8.70;99.90;;;;;;2602284;54;20069;31
2024/01/29 12:16:53;;;;;;;13.00;4.90;;;8.70;99.90;;;;;;2602885;54;20050;31
2024/01/29 12:19:30;;;;;;;10.00;4.47;;;8.70;99.90;;;;;;2619282;46;20060;31
2024/01/29 12:22:11;;;;;;;11.67;5.20;;;8.70;99.90;;;;;;2602128;54;20064;31
2024/01/29 12:25:03;;;;;;;11.98;5.07;;;8.80;99.90;;;;;;2602771;54;20030;31
2024/01/29 12:27:43;;;;;;;13.30;6.07;;;8.80;99.90;;;;;;2603035;54;20866;31
2024/01/29 12:30:33;;;;;;;12.18;4.47;;;8.80;99.90;;;;;;2602847;54;20031;31
2024/01/29 12:33:11;;;;;;;11.85;4.93;;;8.80;99.90;;;;;;2621433;46;20955;31
2024/01/29 12:35:51;;;;;;;11.70;4.25;;;8.90;99.90;;;;;;2621472;46;20892;31
2024/01/29 12:38:35;;;;;;;8.00;4.30;;;8.90;99.90;;;;;;2603093;54;20838;31
2024/01/29 12:41:44;;;;;;;10.52;5.00;;;8.90;99.90;;;;;;2621160;46;20877;31
2024/01/29 12:47:19;;;;;;;12.43;5.25;;;8.90;99.90;;;;;;2602810;54;20022;31
2024/01/29 12:59:26;;;;;;;12.88;4.50;;;9.00;99.90;;;;;;2603471;54;20569;31
2024/01/29 13:02:23;;;;;;;14.80;5.13;;;9.10;99.90;;;;;;2602678;54;20044;31
2024/01/29 13:08:26;;;;;;;;;;;;;;;;;;;;;
2024/01/29 13:20:42;;;;;;;6.45;2.60;;;9.20;99.90;;;;;;2602683;54;20030;31
2024/01/29 13:23:47;;;;;;;4.93;2.00;;;9.30;99.90;;;;;;2602776;54;20026;31
2024/01/29 14:20:48;;;;;;;12.27;5.17;;;9.30;99.90;;;;;;2604066;46;20033;31
2024/01/29 14:23:40;;;;;;;12.60;5.65;;;9.30;99.90;;;;;;2602385;54;20985;31
2024/01/29 14:26:22;;;;;;;14.65;7.43;;;9.20;99.90;;;;;;2602353;54;20026;31
2024/01/29 14:29:22;;;;;;;13.65;5.60;;;9.10;99.90;;;;;;2602345;54;21910;31
2024/01/29 14:32:14;;;;;;;14.75;7.20;;;9.10;99.90;;;;;;2602343;54;20117;31
2024/01/29 14:53:52;;;;;;;10.70;5.55;;;8.70;99.90;;;;;;2602309;54;20884;31
2024/01/29 14:56:39;;;;;;;11.60;5.80;;;8.60;99.90;;;;;;2621789;46;22401;31
2024/01/29 14:59:32;;;;;;;17.00;7.70;;;8.60;99.90;;;;;;2603282;54;20723;31
2024/01/29 15:02:17;;;;;;;15.60;6.78;;;8.50;99.90;;;;;;2603375;54;20908;31
2024/01/29 15:05:16;;;;;;;13.63;6.45;;;8.50;99.90;;;;;;2603304;54;20026;31
2024/01/29 15:11:06;;;;;;;14.70;6.25;;;8.40;99.90;;;;;;2602476;54;20875;31
2024/01/29 15:14:12;;;;;;;14.05;6.28;;;8.30;99.90;;;;;;2603228;54;20026;31
2024/01/29 15:17:08;;;;;;;11.45;5.60;;;8.30;99.90;;;;;;2603148;54;20856;31
2024/01/29 15:20:01;;;;;;;15.15;5.10;;;8.20;99.90;;;;;;2603128;54;20034;31
2024/01/29 15:22:47;;;;;;;11.25;5.85;;;8.10;99.90;;;;;;2603210;54;20027;31
2024/01/29 15:25:27;;;;;;;9.95;6.25;;;8.10;99.90;;;;;;2603019;54;20031;31
2024/01/29 15:28:12;;;;;;;11.00;5.95;;;8.10;99.90;;;;;;2621513;46;20026;31
2024/01/29 15:31:21;;;;;;;16.80;7.72;;;8.00;99.90;;;;;;2621748;46;20868;31
2024/01/29 15:39:59;;;;;;;15.17;7.00;;;7.80;99.90;;;;;;2602841;54;19941;31
2024/01/29 15:49:11;;;;;;;13.90;6.38;;;7.60;99.90;;;;;;2603741;54;20022;31
2024/01/29 17:35:46;;;;;;;26.77;12.80;;;5.70;99.90;;;;;;2654216;53;20074;31
2024/01/29 17:41:26;;;;;;;61.60;35.25;;;5.70;99.90;;;;;;2603199;54;21070;31
2024/01/29 18:40:44;;;;;;;40.53;18.30;;;4.60;99.90;;;;;;2601911;54;20034;31
2024/01/29 19:42:36;;;;;;;43.60;19.50;;;3.80;99.90;;;;;;2600865;54;20066;31
2024/01/29 19:48:41;;;;;;;34.70;17.07;;;3.70;99.90;;;;;;2602743;54;19989;31
2024/01/29 19:51:29;;;;;;;32.40;15.50;;;3.70;99.90;;;;;;2602669;54;20992;31
2024/01/29 22:52:01;;;;;;;45.70;25.57;;;1.70;99.90;;;;;;2600153;54;20226;31
2024/01/29 22:55:10;;;;;;;49.65;25.05;;;1.60;99.90;;;;;;2602363;54;19934;31
2024/01/29 22:57:54;;;;;;;53.42;25.90;;;1.60;99.90;;;;;;2602940;54;20893;31
2024/01/29 23:10:28;;;;;;;39.15;19.55;;;1.50;99.90;;;;;;2607011;46;20027;31
2024/01/29 23:13:26;;;;;;;41.95;21.52;;;1.50;99.90;;;;;;2602784;54;20734;31
2024/01/29 23:16:18;;;;;;;34.80;17.85;;;1.40;99.90;;;;;;2602547;54;20902;31
2024/01/29 23:18:59;;;;;;;40.45;18.77;;;1.40;99.90;;;;;;2602718;54;20048;31
2024/01/29 23:30:31;;;;;;;34.80;16.05;;;1.30;99.90;;;;;;2620968;46;20046;31
2024/01/29 23:33:13;;;;;;;32.65;15.20;;;1.30;99.90;;;;;;2602877;54;20758;31
2024/01/29 23:36:05;;;;;;;37.47;19.80;;;1.20;99.90;;;;;;2772691;31;21470;31
2024/01/29 23:39:18;;;;;;;30.03;15.10;;;1.20;99.90;;;;;;2601923;54;20929;31
2024/01/29 23:42:57;;;;;;;;;;;;;;;;;;;;;